Portada
METAR-TAF:

METAR-TAF

Aeropuertos :

Aeropuerto Internacional Ninoy Aquino

Manila, Filipinas

latitud: 14-31N, longitud: 121-00E, altitud: 14 m

Observación

El informe se hizo hace 54 minutos, a las 21:00 UTC
Viento 7 kt del este-noreste
Temperatura 24°C
Humedad 78%
Presión 1013 hPa
Visibilidad 10 km o más
Escasas nubes a una altura de 2500 ft

METAR: RPLL 022100Z 06007KT 9999 FEW025 24/20 Q1013 NOSIG RMK A2991

Hora: 05:54 (21:54 UTC)

Pronóstico

El informe se hizo hace 4 horas y 54 minutos, a las 17:00 UTC
Pronóstico válido del 02 a las 18 UTC al 03 a las 24 UTC
Viento 8 kt del este-sureste
Visibilidad 10 km o más
Escasas nubes a una altura de 2500 ft
Temporalmente
del 02 a las 18 UTC al 02 a las 24 UTC
Viento 6 kt del este
Temporalmente
del 03 a las 03 UTC al 03 a las 09 UTC
Viento 16 kt del este-sureste

TAF: RPLL 021700Z 0218/0324 12008KT 9999 FEW025 TX35/0306Z TN26/0222Z TEMPO 0218/0224 09006KT TEMPO 0303/0309 12016KT

Observaciones y pronósticos meteorológicos de más de 4000 aeropuertos (mensajes METAR y TAF).

Los puntos amarillos y rojos representan las estaciones disponibles.

Ponga el ratón en el punto deseado para ver el nombre de la estación.

Haga clic para ver las observaciones y los pronósticos meteorológicos.

Para cambiar el mapa : haga clic en los botones verdes con una cruz de color negro para hacer un zoom, en el botón verde con un guión para alejar o en las flechas verdes para mapas adyacentes.


METAR-TAF: